Current Weather

Essex County

Caldwell, New Jersey (KCDW)

Report from: Friday, February 23, 2024 3:53 PM EST
Current time: Friday, February 23, 2024 4:22 PM EST

Nearby weather – Weather history – Daily summaries
Weather forecast

Temperature8.9°C (48.0°F)
Wind chill7.9°C (46.2°F)
Dew point2.2°C (36.0°F)
Winds 4 kts (2.1 m/s, 4.6 mph) Northeast (50°)
Visibility10 mi. (16.1 km)
Clouds Sky clear
Altimeter29.45 in.Hg (997 mB)
Relative humidity63 %
Density altitude-96 ft. (-29 m)
Sea-level pressure99.8 kPa (998 mB, 29.47 in.Hg)
Remarks Fully automated report
Automated weather observing station with precipitation discriminator
Pressure falling more slowly
Flight conditions Visual Meteorological Conditions
Raw dataKCDW 232053Z AUTO 05004KT 10SM CLR 09/02 A2945 RMK AO2 SLP978 T00890022 56013
An error has occurred. This application may no longer respond until reloaded. Reload 🗙